Time;durP1;ratioP1;P1;durP2;ratioP2;P2;SDS_P1;SDS_P2;PMS_P1;PMS_P2;Temp;Humidity;BMP_temperature;BMP_pressure;BME280_temperature;BME280_humidity;BME280_pressure;Samples;Min_cycle;Max_cycle;Signal;HPM_P1;HPM_P2
2022/07/22 00:00:34;;;;;;;4.97;2.85;;;29.10;47.50;;;;;;5043751;28;20048;-60
2022/07/22 00:03:01;;;;;;;5.65;2.95;;;29.00;47.60;;;;;;5049820;28;20106;-60
2022/07/22 00:05:28;;;;;;;4.82;3.90;;;29.00;47.60;;;;;;5049534;28;20045;-59
2022/07/22 00:07:55;;;;;;;4.97;2.70;;;29.00;47.70;;;;;;5050288;28;20515;-61
2022/07/22 00:10:23;;;;;;;4.35;2.58;;;29.00;47.80;;;;;;5050227;28;20442;-60
2022/07/22 00:12:51;;;;;;;6.53;3.15;;;29.00;47.90;;;;;;5048736;28;20478;-60
2022/07/22 00:15:18;;;;;;;4.13;3.38;;;28.90;47.80;;;;;;5049813;28;20033;-60
2022/07/22 00:17:45;;;;;;;7.53;4.63;;;28.90;47.80;;;;;;5049824;28;20119;-60
2022/07/22 00:20:12;;;;;;;3.45;3.15;;;28.90;48.00;;;;;;5049718;28;20048;-60
2022/07/22 00:22:39;;;;;;;3.88;3.58;;;28.90;47.90;;;;;;5029531;28;20046;-60
2022/07/22 00:25:07;;;;;;;6.28;3.10;;;28.80;47.90;;;;;;5048862;28;20045;-60
2022/07/22 00:27:34;;;;;;;3.95;2.85;;;28.80;48.00;;;;;;5049998;28;20523;-60
2022/07/22 00:30:03;;;;;;;9.07;3.38;;;28.80;48.00;;;;;;5049613;28;20140;-60
2022/07/22 00:32:31;;;;;;;6.38;3.55;;;28.80;48.10;;;;;;5048451;28;20437;-60
2022/07/22 00:34:58;;;;;;;4.88;2.47;;;28.80;48.10;;;;;;5049199;28;20077;-60
2022/07/22 00:37:25;;;;;;;2.83;1.88;;;28.70;48.10;;;;;;5049718;28;20126;-62
2022/07/22 00:39:52;;;;;;;6.18;3.10;;;28.70;48.70;;;;;;5046275;28;20392;-61
2022/07/22 00:42:19;;;;;;;5.68;2.95;;;28.70;48.10;;;;;;5048176;28;20577;-61
2022/07/22 00:44:46;;;;;;;4.20;2.00;;;28.70;48.20;;;;;;5049676;28;20468;-60
2022/07/22 00:47:15;;;;;;;9.25;2.83;;;28.70;48.20;;;;;;5049459;28;20041;-61
2022/07/22 00:49:42;;;;;;;3.33;2.45;;;28.60;48.10;;;;;;5048100;28;20053;-60
2022/07/22 00:52:09;;;;;;;9.60;3.10;;;28.60;48.20;;;;;;5049557;28;20495;-61
2022/07/22 00:54:38;;;;;;;4.93;2.40;;;28.60;48.10;;;;;;5049618;28;20432;-61
2022/07/22 00:57:05;;;;;;;4.10;2.55;;;28.50;48.20;;;;;;5047299;28;20041;-61
2022/07/22 00:59:33;;;;;;;4.28;2.80;;;28.50;48.80;;;;;;5049010;28;20045;-61
2022/07/22 01:02:00;;;;;;;4.43;3.10;;;28.50;48.20;;;;;;5049147;28;20474;-60
2022/07/22 01:04:29;;;;;;;2.40;1.90;;;28.50;48.20;;;;;;5048364;28;20041;-60
2022/07/22 01:06:56;;;;;;;6.55;2.67;;;28.50;48.30;;;;;;5049065;28;20465;-61
2022/07/22 01:09:24;;;;;;;3.65;1.40;;;28.50;48.30;;;;;;5047868;28;20048;-61
2022/07/22 01:11:51;;;;;;;4.45;2.45;;;28.50;48.30;;;;;;5048961;28;20049;-62
2022/07/22 01:14:18;;;;;;;5.47;2.55;;;28.40;48.30;;;;;;5047915;28;20045;-61
2022/07/22 01:16:46;;;;;;;4.63;2.72;;;28.40;48.30;;;;;;5047845;28;20037;-61
2022/07/22 01:19:13;;;;;;;3.67;2.72;;;28.40;48.30;;;;;;5047039;28;20056;-62
2022/07/22 01:21:41;;;;;;;6.32;2.28;;;28.40;48.30;;;;;;5048555;28;20172;-60
2022/07/22 01:24:09;;;;;;;4.30;2.20;;;28.30;48.30;;;;;;5047322;28;20525;-61
2022/07/22 01:26:36;;;;;;;3.53;2.15;;;28.30;48.30;;;;;;5046966;28;20103;-60
2022/07/22 01:29:04;;;;;;;5.55;2.33;;;28.30;48.40;;;;;;5046994;28;20047;-61
2022/07/22 01:31:31;;;;;;;3.03;2.25;;;28.30;48.40;;;;;;5046937;28;20049;-60
2022/07/22 01:33:58;;;;;;;2.50;1.80;;;28.30;48.40;;;;;;5046828;28;20065;-61
2022/07/22 01:36:26;;;;;;;2.63;1.77;;;28.30;48.40;;;;;;5047098;28;20132;-60
2022/07/22 01:38:55;;;;;;;2.55;1.52;;;28.20;48.40;;;;;;5047234;28;20049;-60
2022/07/22 01:41:22;;;;;;;2.13;1.92;;;28.30;48.50;;;;;;5047071;28;20064;-60
2022/07/22 01:43:49;;;;;;;3.75;1.58;;;28.20;48.40;;;;;;5047007;28;20102;-60
2022/07/22 01:46:18;;;;;;;3.08;1.90;;;28.20;48.40;;;;;;5047212;28;20048;-60
2022/07/22 01:48:45;;;;;;;2.88;1.58;;;28.20;48.40;;;;;;5046269;28;20040;-60
2022/07/22 01:51:13;;;;;;;3.42;1.70;;;28.20;48.50;;;;;;5046358;28;20033;-60
2022/07/22 01:53:40;;;;;;;3.78;2.38;;;28.20;48.50;;;;;;5046719;28;20041;-60
2022/07/22 01:56:08;;;;;;;2.40;2.17;;;28.10;48.40;;;;;;5046775;28;20037;-60
2022/07/22 01:58:43;;;;;;;3.00;1.40;;;28.10;48.50;;;;;;5046705;28;20041;-60
2022/07/22 02:01:11;;;;;;;6.43;3.00;;;28.10;48.40;;;;;;5046830;28;20044;-60
2022/07/22 02:03:38;;;;;;;4.22;1.60;;;28.10;48.50;;;;;;5046265;28;20549;-60
2022/07/22 02:06:08;;;;;;;3.15;1.20;;;28.10;48.50;;;;;;5046592;28;20045;-58
2022/07/22 02:08:36;;;;;;;6.15;1.65;;;28.10;48.60;;;;;;5046740;28;20041;-59
2022/07/22 02:11:15;;;;;;;3.03;2.47;;;28.00;48.50;;;;;;5046366;28;20045;-60
2022/07/22 02:13:58;;;;;;;6.30;2.17;;;28.00;48.50;;;;;;5046613;28;20049;-60
2022/07/22 02:16:27;;;;;;;2.97;1.60;;;28.00;48.60;;;;;;5046116;28;20676;-56
2022/07/22 02:18:54;;;;;;;2.78;1.55;;;28.00;48.60;;;;;;5046292;28;20124;-60
2022/07/22 02:21:22;;;;;;;3.53;1.80;;;27.90;48.50;;;;;;5047405;28;20049;-58
2022/07/22 02:23:51;;;;;;;4.57;1.67;;;28.00;48.60;;;;;;5046409;28;20037;-57
2022/07/22 02:26:20;;;;;;;4.03;1.58;;;27.90;48.60;;;;;;5045597;28;20132;-57
2022/07/22 02:28:47;;;;;;;3.72;2.00;;;28.00;48.70;;;;;;5051770;28;20069;-58
2022/07/22 02:31:14;;;;;;;3.78;1.65;;;27.90;48.50;;;;;;5051305;28;20047;-60
2022/07/22 02:33:41;;;;;;;2.80;1.38;;;27.90;48.60;;;;;;5050174;28;20804;-61
2022/07/22 02:36:10;;;;;;;2.35;1.40;;;27.90;48.50;;;;;;5064516;28;20045;-58
2022/07/22 02:38:37;;;;;;;2.58;1.85;;;27.80;48.40;;;;;;5050397;28;20045;-59
2022/07/22 02:41:04;;;;;;;3.15;1.67;;;27.80;48.50;;;;;;5051579;28;20470;-60
2022/07/22 02:43:35;;;;;;;3.63;1.17;;;27.80;48.50;;;;;;5050353;28;20048;-60
2022/07/22 02:46:02;;;;;;;1.48;1.13;;;27.80;48.50;;;;;;5049642;28;20064;-60
2022/07/22 02:48:30;;;;;;;6.07;2.03;;;27.80;48.50;;;;;;5049807;28;20120;-59
2022/07/22 02:50:57;;;;;;;4.07;2.50;;;27.80;48.50;;;;;;5049872;28;20495;-60
2022/07/22 02:53:28;;;;;;;2.40;1.30;;;27.70;48.40;;;;;;5049942;28;20087;-61
2022/07/22 02:55:56;;;;;;;5.97;1.52;;;27.70;48.50;;;;;;5038765;28;20044;-60
2022/07/22 02:58:24;;;;;;;6.03;2.25;;;27.70;48.40;;;;;;5051264;28;20047;-62
2022/07/22 03:00:52;;;;;;;6.50;1.80;;;27.70;48.40;;;;;;5049637;28;20429;-62
2022/07/22 03:03:19;;;;;;;1.35;1.20;;;27.70;48.50;;;;;;5049484;28;20522;-61
2022/07/22 03:05:46;;;;;;;5.63;1.10;;;27.60;48.40;;;;;;5049515;28;20041;-61
2022/07/22 03:08:30;;;;;;;1.60;1.40;;;27.60;48.40;;;;;;5049456;28;20044;-62
2022/07/22 03:10:57;;;;;;;3.90;0.88;;;27.60;48.50;;;;;;5049860;28;20048;-61
2022/07/22 03:13:24;;;;;;;3.22;1.27;;;27.60;48.40;;;;;;5050955;28;20041;-61
2022/07/22 03:15:52;;;;;;;4.30;2.60;;;27.60;48.50;;;;;;5052894;28;20194;-60
2022/07/22 03:18:19;;;;;;;3.28;1.23;;;27.60;48.50;;;;;;5049270;28;20549;-60
2022/07/22 03:20:47;;;;;;;1.95;1.20;;;27.60;48.50;;;;;;5049572;28;20044;-59
2022/07/22 03:23:14;;;;;;;2.13;0.95;;;27.60;48.50;;;;;;5050841;28;20037;-59
2022/07/22 03:25:41;;;;;;;3.97;1.23;;;27.60;48.50;;;;;;5049392;28;20575;-59
2022/07/22 03:28:09;;;;;;;3.28;1.05;;;27.60;48.50;;;;;;5050784;28;20103;-59
2022/07/22 03:30:36;;;;;;;4.72;1.80;;;27.60;48.50;;;;;;5042272;28;20135;-59
2022/07/22 03:33:05;;;;;;;7.00;1.33;;;27.50;48.40;;;;;;5049067;28;20037;-59
2022/07/22 03:35:37;;;;;;;1.33;1.23;;;27.50;48.40;;;;;;5048945;28;20044;-59
2022/07/22 03:38:05;;;;;;;2.17;1.23;;;27.50;48.40;;;;;;5048525;28;20041;-60
2022/07/22 03:40:32;;;;;;;1.88;1.42;;;27.50;48.40;;;;;;5048529;28;20479;-59
2022/07/22 03:43:00;;;;;;;3.10;1.35;;;27.50;48.40;;;;;;5048433;28;20098;-59
2022/07/22 03:45:27;;;;;;;2.28;0.95;;;27.50;48.40;;;;;;5050653;28;20456;-59
2022/07/22 03:47:54;;;;;;;4.47;1.10;;;27.50;48.40;;;;;;5049867;28;20037;-58
2022/07/22 03:50:25;;;;;;;4.57;1.88;;;27.50;48.40;;;;;;5048792;28;20504;-58
2022/07/22 03:52:52;;;;;;;1.92;0.85;;;27.50;48.30;;;;;;5048217;28;20127;-57
2022/07/22 03:55:19;;;;;;;3.42;0.70;;;27.40;48.30;;;;;;5049930;28;20032;-60
2022/07/22 03:57:50;;;;;;;3.55;0.98;;;27.50;48.30;;;;;;5081498;28;20049;-57
2022/07/22 04:00:25;;;;;;;6.33;2.40;;;27.40;48.20;;;;;;5048725;28;20059;-58
2022/07/22 04:02:52;;;;;;;4.93;1.13;;;27.40;48.20;;;;;;5049746;28;20291;-58
2022/07/22 04:05:28;;;;;;;2.45;1.70;;;27.40;48.30;;;;;;5047220;28;20127;-60
2022/07/22 04:07:56;;;;;;;1.08;0.57;;;27.40;48.30;;;;;;5048418;28;20061;-58
2022/07/22 04:10:23;;;;;;;1.40;0.63;;;27.40;48.40;;;;;;5048529;28;20167;-58
2022/07/22 04:12:50;;;;;;;1.83;1.10;;;27.40;48.30;;;;;;5048217;28;20128;-58
2022/07/22 04:15:37;;;;;;;2.95;1.13;;;27.40;48.30;;;;;;5030341;28;20045;-58
2022/07/22 04:18:04;;;;;;;2.55;0.85;;;27.40;48.30;;;;;;5046428;28;20055;-58
2022/07/22 04:20:32;;;;;;;2.45;0.85;;;27.40;48.30;;;;;;5048260;28;20406;-58
2022/07/22 04:23:18;;;;;;;4.47;1.40;;;27.40;48.30;;;;;;5049458;28;20186;-58
2022/07/22 04:25:46;;;;;;;1.40;1.33;;;27.30;48.20;;;;;;5048094;28;20068;-59
2022/07/22 04:28:13;;;;;;;3.35;0.98;;;27.30;48.20;;;;;;5049053;28;20067;-59
2022/07/22 04:30:42;;;;;;;3.15;0.93;;;27.30;48.20;;;;;;5047934;28;20041;-59
2022/07/22 04:33:09;;;;;;;2.35;1.77;;;27.30;48.30;;;;;;5049084;28;20517;-58
2022/07/22 04:35:38;;;;;;;4.30;1.15;;;27.30;48.30;;;;;;5047438;28;20084;-58
2022/07/22 04:38:18;;;;;;;2.13;1.00;;;27.30;48.20;;;;;;5047512;28;20052;-59
2022/07/22 04:40:55;;;;;;;1.35;1.02;;;27.30;48.30;;;;;;5047855;28;20064;-59
2022/07/22 04:43:24;;;;;;;4.10;1.15;;;27.20;48.20;;;;;;5047894;28;20041;-59
2022/07/22 04:45:51;;;;;;;2.25;0.63;;;27.30;48.30;;;;;;5047580;28;20124;-59
2022/07/22 04:48:18;;;;;;;1.70;0.70;;;27.30;48.30;;;;;;5047620;28;20560;-58
2022/07/22 04:50:47;;;;;;;4.57;1.50;;;27.30;48.20;;;;;;5047316;28;20045;-58
2022/07/22 04:53:14;;;;;;;1.02;0.98;;;27.20;48.10;;;;;;5061044;28;20461;-58
2022/07/22 04:55:42;;;;;;;2.03;0.85;;;27.30;48.30;;;;;;5031827;28;20044;-59
2022/07/22 04:58:09;;;;;;;3.50;0.68;;;27.20;48.10;;;;;;5047507;28;20044;-59
2022/07/22 05:00:36;;;;;;;2.65;1.08;;;27.20;48.20;;;;;;5047103;28;20072;-58
2022/07/22 05:03:04;;;;;;;3.97;1.08;;;27.20;48.10;;;;;;5046915;28;20057;-60
2022/07/22 05:05:31;;;;;;;2.15;1.80;;;27.20;48.10;;;;;;5047458;28;20123;-59
2022/07/22 05:08:00;;;;;;;3.03;1.15;;;27.20;48.10;;;;;;5046265;28;20075;-59
2022/07/22 05:10:28;;;;;;;5.50;1.48;;;27.20;48.10;;;;;;5046888;28;20045;-58
2022/07/22 05:12:55;;;;;;;2.30;0.90;;;27.20;48.10;;;;;;5048212;28;20064;-59
2022/07/22 05:15:23;;;;;;;3.42;1.30;;;27.20;48.10;;;;;;5046819;28;20045;-59
2022/07/22 05:17:50;;;;;;;6.03;1.75;;;27.10;48.00;;;;;;5048521;28;20044;-59
2022/07/22 05:20:22;;;;;;;1.70;0.82;;;27.10;48.10;;;;;;5047383;28;20118;-60
2022/07/22 05:22:49;;;;;;;6.13;1.30;;;27.10;48.20;;;;;;5049436;28;20651;-59
2022/07/22 05:25:24;;;;;;;5.80;1.75;;;27.10;48.20;;;;;;5039948;28;20090;-59
2022/07/22 05:27:52;;;;;;;3.90;1.35;;;27.00;48.20;;;;;;5042167;28;20037;-59
2022/07/22 05:30:21;;;;;;;5.68;0.82;;;27.10;48.30;;;;;;5046823;28;20045;-59
2022/07/22 05:32:48;;;;;;;7.35;1.48;;;27.00;48.40;;;;;;5048023;28;20044;-61
2022/07/22 05:35:19;;;;;;;4.53;0.90;;;27.10;48.50;;;;;;5030103;28;20135;-59
2022/07/22 05:37:46;;;;;;;8.25;1.42;;;27.00;48.50;;;;;;5048469;28;20083;-59
2022/07/22 05:40:14;;;;;;;7.55;1.40;;;27.10;48.50;;;;;;5046180;28;20045;-60
2022/07/22 05:42:42;;;;;;;6.80;1.30;;;27.10;48.50;;;;;;5046330;28;20049;-59
2022/07/22 05:45:10;;;;;;;6.10;1.90;;;27.10;48.50;;;;;;5047341;28;20116;-59
2022/07/22 05:47:38;;;;;;;6.50;1.58;;;27.10;48.50;;;;;;5046336;28;20041;-59
2022/07/22 05:50:05;;;;;;;3.75;1.58;;;27.10;48.60;;;;;;5053318;28;20108;-61
2022/07/22 05:52:37;;;;;;;4.00;1.48;;;27.10;48.60;;;;;;5054137;28;20103;-61
2022/07/22 05:55:05;;;;;;;3.80;2.13;;;27.10;48.60;;;;;;5058342;28;20112;-61
2022/07/22 05:57:33;;;;;;;14.02;2.38;;;27.10;48.70;;;;;;5046161;28;20041;-62
2022/07/22 06:00:01;;;;;;;6.60;2.05;;;27.10;48.60;;;;;;5029846;28;20041;-61
2022/07/22 06:02:30;;;;;;;9.73;1.88;;;27.10;48.60;;;;;;5047426;28;20045;-61
2022/07/22 06:05:00;;;;;;;3.72;1.98;;;27.10;48.60;;;;;;5039700;28;20054;-61
2022/07/22 06:07:27;;;;;;;4.00;1.73;;;27.10;48.70;;;;;;5046101;28;20093;-60
2022/07/22 06:09:59;;;;;;;1.98;1.33;;;27.20;48.70;;;;;;5046190;28;20577;-60
2022/07/22 06:12:30;;;;;;;4.85;1.58;;;27.20;48.70;;;;;;5046371;28;20595;-59
2022/07/22 06:14:57;;;;;;;6.45;1.00;;;27.20;48.60;;;;;;5046185;28;20459;-60
2022/07/22 06:17:26;;;;;;;3.10;1.65;;;27.20;48.80;;;;;;5046576;28;20047;-59
2022/07/22 06:19:54;;;;;;;3.92;1.95;;;27.20;48.80;;;;;;5046221;28;20052;-59
2022/07/22 06:22:21;;;;;;;3.28;1.40;;;27.20;48.80;;;;;;5046272;28;20040;-60
2022/07/22 06:24:48;;;;;;;3.63;1.48;;;27.20;48.70;;;;;;5047394;28;20041;-59
2022/07/22 06:27:16;;;;;;;2.33;1.95;;;27.30;48.70;;;;;;5046383;28;20080;-60
2022/07/22 06:29:44;;;;;;;12.82;1.92;;;27.30;48.40;;;;;;5045975;28;20472;-59
2022/07/22 06:32:11;;;;;;;8.05;2.30;;;27.30;48.90;;;;;;5044552;28;20173;-62
2022/07/22 06:34:39;;;;;;;10.43;4.88;;;27.30;48.70;;;;;;5046710;28;20123;-47
2022/07/22 06:37:08;;;;;;;5.00;1.88;;;27.40;48.50;;;;;;5034777;28;20531;-52
2022/07/22 06:39:35;;;;;;;7.00;3.45;;;27.60;48.30;;;;;;5043814;28;20045;-60
2022/07/22 06:42:25;;;;;;;6.00;1.67;;;27.80;48.00;;;;;;5037005;28;20045;-56
2022/07/22 06:45:15;;;;;;;6.88;1.90;;;28.00;47.20;;;;;;5035038;28;20140;-53
2022/07/22 06:47:54;;;;;;;5.03;1.90;;;28.30;46.80;;;;;;5043715;28;20053;-65
2022/07/22 06:50:22;;;;;;;4.00;1.77;;;28.50;46.40;;;;;;5042461;28;20416;-54
2022/07/22 06:52:50;;;;;;;9.52;3.05;;;28.70;46.10;;;;;;5041875;28;20051;-63
2022/07/22 06:55:17;;;;;;;2.75;1.50;;;28.80;45.70;;;;;;5035653;28;20048;-64
2022/07/22 06:57:53;;;;;;;4.10;1.27;;;29.00;46.00;;;;;;5041288;28;20118;-60
2022/07/22 07:00:20;;;;;;;5.90;1.88;;;29.10;45.00;;;;;;5041923;28;20072;-55
2022/07/22 07:03:08;;;;;;;6.32;2.38;;;29.30;44.80;;;;;;5000748;28;20054;-63
2022/07/22 07:05:38;;;;;;;5.75;2.97;;;29.40;44.70;;;;;;4984727;28;20053;-62
2022/07/22 07:08:06;;;;;;;7.30;2.45;;;29.50;44.50;;;;;;4983358;28;20069;-59
2022/07/22 07:10:33;;;;;;;7.15;2.13;;;29.60;44.30;;;;;;4984186;28;20057;-56
2022/07/22 07:13:07;;;;;;;7.00;1.70;;;29.80;44.20;;;;;;4984448;28;20085;-57
2022/07/22 07:15:45;;;;;;;9.68;2.35;;;29.80;44.10;;;;;;4986931;28;20054;-52
2022/07/22 07:18:12;;;;;;;10.20;1.98;;;29.90;44.00;;;;;;4982095;28;20041;-64
2022/07/22 07:20:41;;;;;;;6.00;1.90;;;30.00;43.80;;;;;;4987606;28;20088;-71
2022/07/22 07:23:10;;;;;;;7.97;1.95;;;30.10;44.00;;;;;;4989849;28;20050;-71
2022/07/22 07:25:43;;;;;;;7.43;2.40;;;30.20;43.60;;;;;;4989537;28;20838;-65
2022/07/22 07:28:10;;;;;;;11.73;3.65;;;30.30;43.20;;;;;;5004456;28;20054;-61
2022/07/22 07:30:51;;;;;;;6.50;2.83;;;30.30;42.90;;;;;;4986149;28;20050;-55
2022/07/22 07:33:19;;;;;;;4.80;2.80;;;30.40;42.70;;;;;;4986123;28;20057;-57
2022/07/22 07:35:48;;;;;;;6.72;3.15;;;30.40;42.60;;;;;;5002901;28;20046;-55
2022/07/22 07:38:20;;;;;;;5.22;1.92;;;30.50;42.60;;;;;;4987078;28;20046;-56
2022/07/22 07:40:47;;;;;;;4.70;1.90;;;30.60;42.50;;;;;;5025274;28;20049;-55
2022/07/22 07:43:14;;;;;;;5.80;3.55;;;30.60;42.90;;;;;;5042561;28;20049;-55
2022/07/22 07:45:41;;;;;;;10.32;2.78;;;30.70;42.30;;;;;;5042181;28;20073;-59
2022/07/22 07:48:09;;;;;;;5.45;2.70;;;30.70;42.30;;;;;;5044244;28;20618;-69
2022/07/22 07:50:36;;;;;;;17.02;3.67;;;30.80;42.40;;;;;;5041617;28;20056;-76
2022/07/22 07:53:07;;;;;;;13.10;2.67;;;30.90;42.30;;;;;;5041078;28;20135;-64
2022/07/22 07:55:36;;;;;;;5.70;1.70;;;30.90;42.30;;;;;;5034566;28;20084;-62
2022/07/22 07:58:03;;;;;;;9.27;2.65;;;31.00;42.10;;;;;;5044118;28;20083;-61
2022/07/22 08:00:33;;;;;;;3.83;2.60;;;31.10;42.30;;;;;;5044886;28;20077;-61
2022/07/22 08:03:01;;;;;;;4.38;2.22;;;31.10;42.30;;;;;;5044595;28;20056;-59
2022/07/22 08:05:32;;;;;;;8.50;2.10;;;31.20;42.00;;;;;;5044118;28;20037;-60
2022/07/22 08:08:01;;;;;;;5.80;1.90;;;31.20;41.80;;;;;;5044249;28;20136;-60
2022/07/22 08:10:30;;;;;;;16.25;4.30;;;31.30;42.00;;;;;;5044638;28;20044;-63
2022/07/22 08:13:10;;;;;;;5.47;2.88;;;31.30;43.20;;;;;;5025551;28;20042;-61
2022/07/22 08:16:00;;;;;;;9.63;2.90;;;31.30;45.20;;;;;;4983019;28;20182;-60
2022/07/22 08:18:29;;;;;;;9.75;3.25;;;31.40;43.60;;;;;;4967593;28;20050;-61
2022/07/22 08:20:57;;;;;;;9.63;2.75;;;31.50;42.90;;;;;;4967674;28;20141;-58
2022/07/22 08:23:42;;;;;;;6.90;2.28;;;31.50;42.40;;;;;;4983170;28;20129;-60
2022/07/22 08:26:11;;;;;;;10.48;2.60;;;31.50;42.00;;;;;;4966134;28;20947;-63
2022/07/22 08:28:39;;;;;;;4.05;2.65;;;31.50;41.70;;;;;;4964378;28;20050;-69
2022/07/22 08:31:06;;;;;;;7.15;3.40;;;31.60;41.60;;;;;;4977623;28;20049;-69
2022/07/22 08:33:34;;;;;;;5.07;2.15;;;31.50;41.20;;;;;;4958529;28;20082;-69
2022/07/22 08:36:02;;;;;;;4.53;2.20;;;31.50;41.00;;;;;;4984818;28;20709;-61
2022/07/22 08:38:29;;;;;;;5.40;2.47;;;31.50;41.20;;;;;;4966856;28;20054;-60
2022/07/22 08:40:57;;;;;;;4.80;2.40;;;31.60;41.40;;;;;;4983260;28;21108;-59
2022/07/22 08:43:25;;;;;;;11.02;3.85;;;31.60;41.20;;;;;;4983394;28;20061;-58
2022/07/22 08:45:54;;;;;;;21.75;5.68;;;31.60;41.10;;;;;;4983443;28;20060;-63
2022/07/22 08:48:21;;;;;;;11.85;3.90;;;31.70;41.30;;;;;;4966086;28;20049;-64
2022/07/22 08:51:12;;;;;;;10.10;3.38;;;31.70;41.40;;;;;;4983112;28;20061;-63
2022/07/22 08:54:12;;;;;;;9.20;3.20;;;31.60;41.30;;;;;;5027551;28;20075;-60
2022/07/22 08:56:42;;;;;;;7.90;2.92;;;31.60;41.40;;;;;;5013862;28;20824;-64
2022/07/22 08:59:10;;;;;;;9.98;4.43;;;31.70;41.50;;;;;;5038610;28;20047;-62
2022/07/22 09:01:38;;;;;;;16.13;3.30;;;31.60;41.40;;;;;;5044282;28;20064;-63
2022/07/22 09:04:05;;;;;;;6.07;2.95;;;31.60;41.30;;;;;;5042578;28;20057;-63
2022/07/22 09:06:36;;;;;;;9.77;3.08;;;31.60;41.20;;;;;;5031013;28;20049;-63
2022/07/22 09:09:09;;;;;;;6.28;3.28;;;31.70;41.30;;;;;;5034117;28;20057;-63
2022/07/22 09:12:05;;;;;;;7.85;2.80;;;31.70;41.10;;;;;;5016321;28;20053;-63
2022/07/22 09:14:54;;;;;;;4.47;2.90;;;31.70;41.00;;;;;;5021863;28;20187;-65
2022/07/22 09:17:36;;;;;;;9.80;3.83;;;31.70;41.20;;;;;;5003678;28;20051;-62
2022/07/22 09:20:21;;;;;;;16.60;3.95;;;31.80;41.40;;;;;;5022272;28;20074;-63
2022/07/22 09:23:13;;;;;;;7.75;3.03;;;31.80;41.30;;;;;;5021609;28;20136;-62
2022/07/22 09:25:43;;;;;;;10.25;2.65;;;31.90;41.40;;;;;;5020474;28;20126;-64
2022/07/22 09:28:25;;;;;;;4.50;1.80;;;31.90;41.50;;;;;;5018421;28;20095;-68
2022/07/22 09:31:25;;;;;;;7.80;1.98;;;32.20;41.80;;;;;;5004607;28;20049;-68
2022/07/22 09:33:54;;;;;;;3.65;2.55;;;32.50;41.30;;;;;;5007768;28;20042;-63
2022/07/22 09:36:24;;;;;;;7.20;2.38;;;32.80;40.70;;;;;;5005242;28;20100;-68
2022/07/22 09:38:54;;;;;;;10.35;1.77;;;33.20;40.20;;;;;;5008908;28;20041;-53
2022/07/22 09:41:22;;;;;;;4.65;2.95;;;33.60;39.80;;;;;;5031119;28;20521;-59
2022/07/22 09:43:50;;;;;;;10.15;3.63;;;34.10;39.30;;;;;;5026029;28;20045;-61
2022/07/22 09:46:17;;;;;;;7.82;3.60;;;34.50;38.40;;;;;;5008123;28;20060;-61
2022/07/22 09:49:10;;;;;;;6.00;2.80;;;34.60;37.70;;;;;;5024706;28;20574;-61
2022/07/22 09:51:50;;;;;;;10.75;5.43;;;34.50;37.50;;;;;;5045850;28;20036;-59
2022/07/22 09:54:20;;;;;;;9.20;4.00;;;34.30;37.50;;;;;;5046458;28;20696;-61
2022/07/22 09:56:47;;;;;;;9.50;4.63;;;34.10;37.60;;;;;;5045825;28;20045;-62
2022/07/22 09:59:17;;;;;;;6.10;3.95;;;33.90;37.80;;;;;;5045813;28;20052;-61
2022/07/22 10:01:57;;;;;;;3.92;3.20;;;33.70;37.90;;;;;;5045748;28;20041;-60
2022/07/22 10:04:29;;;;;;;6.70;3.38;;;33.40;38.10;;;;;;5045958;28;20071;-61
2022/07/22 10:06:58;;;;;;;8.90;3.63;;;33.20;38.40;;;;;;5045876;28;20041;-61
2022/07/22 10:09:31;;;;;;;8.88;3.28;;;33.00;38.60;;;;;;5045809;28;20526;-61
2022/07/22 10:11:59;;;;;;;6.45;3.53;;;32.80;38.80;;;;;;5046052;28;20094;-61
2022/07/22 10:14:28;;;;;;;3.50;3.20;;;32.70;39.10;;;;;;5045655;28;20139;-62
2022/07/22 10:16:59;;;;;;;12.43;4.35;;;32.50;39.30;;;;;;5045982;28;20040;-61
2022/07/22 10:19:28;;;;;;;5.20;3.15;;;32.40;39.50;;;;;;5044361;28;20142;-52
2022/07/22 10:21:55;;;;;;;6.00;3.83;;;32.20;39.70;;;;;;5045081;28;20409;-55
2022/07/22 10:24:23;;;;;;;3.67;3.20;;;32.10;40.20;;;;;;5043303;28;20568;-49
2022/07/22 10:27:01;;;;;;;5.13;4.65;;;31.90;40.40;;;;;;5045555;28;20041;-50
2022/07/22 10:29:30;;;;;;;10.40;4.53;;;31.70;40.80;;;;;;5045656;28;20053;-53
2022/07/22 10:32:27;;;;;;;9.13;3.42;;;31.60;41.20;;;;;;5046546;28;20044;-53
2022/07/22 10:35:23;;;;;;;7.28;4.13;;;31.40;41.40;;;;;;5046503;28;20529;-56
2022/07/22 10:37:53;;;;;;;13.10;4.50;;;31.30;41.90;;;;;;5035478;28;20049;-60
2022/07/22 10:40:21;;;;;;;9.85;5.15;;;31.10;42.50;;;;;;5049738;28;20091;-60
2022/07/22 10:43:09;;;;;;;6.03;4.03;;;30.90;43.00;;;;;;5048624;28;20116;-61
2022/07/22 10:45:39;;;;;;;8.45;4.75;;;30.90;43.70;;;;;;5043284;28;20037;-60
2022/07/22 10:48:09;;;;;;;7.60;3.95;;;30.70;44.40;;;;;;5048243;28;20079;-60
2022/07/22 10:50:52;;;;;;;9.00;4.90;;;30.60;45.00;;;;;;5050435;28;20395;-58
2022/07/22 10:53:21;;;;;;;7.20;4.45;;;30.50;45.50;;;;;;5048498;28;20049;-58
2022/07/22 10:56:08;;;;;;;9.13;4.57;;;30.40;45.90;;;;;;5056923;28;20055;-54
2022/07/22 10:58:59;;;;;;;15.80;4.55;;;30.30;46.30;;;;;;5045714;28;20536;-58
2022/07/22 11:01:30;;;;;;;4.60;4.18;;;30.20;46.60;;;;;;5050439;28;20543;-58
2022/07/22 11:04:08;;;;;;;7.30;4.60;;;30.10;47.00;;;;;;5059208;28;20048;-65
2022/07/22 11:06:36;;;;;;;6.43;3.85;;;30.00;47.30;;;;;;5043862;28;20037;-67
2022/07/22 11:09:06;;;;;;;8.85;3.75;;;30.00;47.50;;;;;;5044140;28;20048;-64
2022/07/22 11:11:37;;;;;;;11.82;3.72;;;29.90;47.70;;;;;;5050423;28;20499;-65
2022/07/22 11:14:11;;;;;;;9.65;4.40;;;29.90;47.90;;;;;;5051758;28;20041;-66
2022/07/22 11:16:38;;;;;;;6.97;5.07;;;29.80;48.20;;;;;;5045636;28;20087;-63
2022/07/22 11:19:06;;;;;;;7.50;4.75;;;29.70;48.90;;;;;;5057638;28;20041;-62
2022/07/22 11:21:36;;;;;;;6.15;5.50;;;29.70;48.30;;;;;;5053037;28;20146;-64
2022/07/22 11:24:06;;;;;;;12.55;4.72;;;29.70;48.20;;;;;;5050415;28;20095;-63
2022/07/22 11:26:40;;;;;;;4.65;4.20;;;29.70;48.20;;;;;;5050121;28;20045;-61
2022/07/22 11:29:07;;;;;;;10.65;4.25;;;29.60;48.40;;;;;;5053112;28;20107;-61
2022/07/22 11:31:34;;;;;;;5.22;4.80;;;29.50;48.20;;;;;;5052341;28;20102;-64
2022/07/22 11:34:09;;;;;;;8.18;5.70;;;29.50;48.40;;;;;;5047400;28;20052;-63
2022/07/22 11:36:40;;;;;;;15.35;4.63;;;29.50;48.50;;;;;;5049894;28;20099;-64
2022/07/22 11:39:08;;;;;;;11.10;4.95;;;29.40;48.40;;;;;;5049880;28;20141;-64
2022/07/22 11:41:36;;;;;;;12.27;4.88;;;29.40;48.60;;;;;;5049486;28;20463;-61
2022/07/22 11:44:04;;;;;;;6.32;4.28;;;29.40;48.70;;;;;;5051924;28;20064;-63
2022/07/22 11:46:38;;;;;;;7.97;4.43;;;29.40;48.80;;;;;;5048979;28;20131;-65
2022/07/22 11:49:05;;;;;;;10.02;5.15;;;29.40;48.60;;;;;;5049492;28;20045;-69
2022/07/22 11:51:34;;;;;;;6.88;4.53;;;29.40;48.60;;;;;;5049290;28;20495;-71
2022/07/22 11:54:06;;;;;;;6.53;3.90;;;29.30;48.50;;;;;;5049753;28;20805;-68
2022/07/22 11:56:34;;;;;;;10.27;4.15;;;29.40;48.60;;;;;;5048968;28;20469;-69
2022/07/22 11:59:04;;;;;;;6.00;4.72;;;29.40;48.40;;;;;;5047537;28;20041;-64
2022/07/22 12:01:33;;;;;;;8.27;4.63;;;29.30;48.40;;;;;;5048789;28;20094;-65
2022/07/22 12:04:02;;;;;;;8.35;3.50;;;29.30;48.40;;;;;;5047809;28;20053;-65
2022/07/22 12:06:33;;;;;;;5.43;3.55;;;29.30;48.40;;;;;;5047414;28;20135;-64
2022/07/22 12:09:07;;;;;;;8.70;3.00;;;29.30;48.80;;;;;;5043772;28;20065;-69
2022/07/22 12:11:35;;;;;;;7.85;4.85;;;29.30;49.20;;;;;;5048517;28;20132;-69
2022/07/22 12:14:08;;;;;;;5.97;3.17;;;29.40;49.40;;;;;;5049172;28;20045;-69
2022/07/22 12:16:36;;;;;;;8.27;3.67;;;29.40;49.50;;;;;;5049379;28;20048;-69
2022/07/22 12:19:05;;;;;;;7.85;3.83;;;29.40;49.60;;;;;;5048941;28;20411;-70
2022/07/22 12:21:34;;;;;;;4.00;3.60;;;29.50;49.70;;;;;;5048815;28;20602;-69
2022/07/22 12:24:04;;;;;;;4.03;3.15;;;29.40;49.70;;;;;;5048805;28;20048;-69
2022/07/22 12:26:44;;;;;;;6.18;4.40;;;29.50;49.80;;;;;;5046277;28;20052;-69
2022/07/22 12:29:30;;;;;;;5.75;3.05;;;29.50;50.30;;;;;;5048678;28;20081;-68
2022/07/22 12:32:00;;;;;;;4.32;3.05;;;29.60;49.80;;;;;;5042521;28;20136;-69
2022/07/22 12:34:31;;;;;;;5.40;3.40;;;29.60;49.80;;;;;;5042721;28;20041;-69
2022/07/22 12:36:59;;;;;;;3.65;2.80;;;29.60;49.80;;;;;;5043508;28;20581;-69
2022/07/22 12:39:27;;;;;;;2.95;2.70;;;29.70;49.70;;;;;;5048866;28;20116;-69
2022/07/22 12:41:55;;;;;;;3.95;2.38;;;29.70;49.60;;;;;;5048748;28;20069;-69
2022/07/22 12:44:24;;;;;;;2.08;1.98;;;29.70;49.60;;;;;;5048578;28;20586;-68
2022/07/22 12:46:53;;;;;;;5.90;3.47;;;29.70;49.50;;;;;;5048688;28;20099;-68
2022/07/22 12:49:23;;;;;;;3.58;2.63;;;29.80;50.10;;;;;;5048646;28;20037;-68
2022/07/22 12:52:11;;;;;;;2.92;2.47;;;29.80;49.40;;;;;;5048827;28;20419;-67
2022/07/22 12:54:41;;;;;;;3.80;2.00;;;29.90;49.40;;;;;;5048187;28;20126;-69
2022/07/22 12:57:09;;;;;;;2.20;2.10;;;29.90;49.40;;;;;;5047246;28;20040;-69
2022/07/22 12:59:37;;;;;;;3.00;2.70;;;29.90;49.30;;;;;;5048328;28;20041;-69
2022/07/22 13:02:05;;;;;;;4.28;2.65;;;29.90;49.20;;;;;;5048267;28;20570;-69